Time;durP1;ratioP1;P1;durP2;ratioP2;P2;SDS_P1;SDS_P2;PMS_P1;PMS_P2;Temp;Humidity;BMP_temperature;BMP_pressure;BME280_temperature;BME280_humidity;BME280_pressure;Samples;Min_cycle;Max_cycle;Signal;HPM_P1;HPM_P2
2024/01/04 00:03:24;;;;;;;4.18;1.25;;;;;;;;;;10395257;28;20128;-74
2024/01/04 00:08:27;;;;;;;1.73;1.03;;;;;;;;;;10399274;28;20049;-74
2024/01/04 00:13:32;;;;;;;2.03;1.13;;;;;;;;;;10396711;28;20045;-73
2024/01/04 00:18:36;;;;;;;3.05;1.10;;;;;;;;;;10403169;28;20037;-74
2024/01/04 00:23:39;;;;;;;2.13;1.10;;;;;;;;;;10398551;28;20450;-74
2024/01/04 00:28:43;;;;;;;2.08;0.73;;;;;;;;;;10399920;28;20037;-74
2024/01/04 00:33:47;;;;;;;1.90;0.80;;;;;;;;;;10400819;28;20488;-74
2024/01/04 00:38:50;;;;;;;1.05;0.80;;;;;;;;;;10396875;28;20107;-74
2024/01/04 00:43:54;;;;;;;1.85;0.95;;;;;;;;;;10404728;28;20064;-74
2024/01/04 00:48:58;;;;;;;3.20;1.02;;;;;;;;;;10399477;28;20045;-74
2024/01/04 00:54:02;;;;;;;1.73;1.00;;;;;;;;;;10399698;28;20056;-74
2024/01/04 00:59:06;;;;;;;1.20;1.00;;;;;;;;;;10401032;28;20097;-73
2024/01/04 01:04:10;;;;;;;1.25;0.60;;;;;;;;;;10396246;28;20042;-74
2024/01/04 01:09:14;;;;;;;1.17;0.90;;;;;;;;;;10401760;28;20045;-74
2024/01/04 01:14:19;;;;;;;1.63;1.08;;;;;;;;;;10411641;28;20046;-74
2024/01/04 01:19:22;;;;;;;1.15;0.50;;;;;;;;;;10384980;28;20430;-74
2024/01/04 01:24:25;;;;;;;0.70;0.47;;;;;;;;;;10396843;28;20069;-74
2024/01/04 01:29:30;;;;;;;1.35;0.60;;;;;;;;;;10397120;28;20132;-73
2024/01/04 01:34:33;;;;;;;0.75;0.47;;;;;;;;;;10398059;28;20475;-73
2024/01/04 01:39:36;;;;;;;1.75;0.95;;;;;;;;;;10400278;28;20037;-74
2024/01/04 01:44:41;;;;;;;3.45;1.10;;;;;;;;;;10400699;28;20160;-74
2024/01/04 01:49:44;;;;;;;2.33;1.40;;;;;;;;;;10398371;28;20038;-73
2024/01/04 01:54:48;;;;;;;0.70;0.65;;;;;;;;;;10399427;28;20060;-74
2024/01/04 01:59:53;;;;;;;0.60;0.50;;;;;;;;;;10394955;28;20045;-74
2024/01/04 02:04:56;;;;;;;0.50;0.30;;;;;;;;;;10397463;28;20052;-74
2024/01/04 02:10:07;;;;;;;0.75;0.50;;;;;;;;;;10396633;28;20050;-74
2024/01/04 02:15:12;;;;;;;0.40;0.30;;;;;;;;;;10389056;28;20207;-74
2024/01/04 02:20:15;;;;;;;1.08;0.50;;;;;;;;;;10396071;28;20120;-74
2024/01/04 02:25:20;;;;;;;0.90;0.40;;;;;;;;;;10394133;28;20052;-74
2024/01/04 02:30:23;;;;;;;0.95;0.52;;;;;;;;;;10394335;28;20041;-73
2024/01/04 02:35:27;;;;;;;0.75;0.38;;;;;;;;;;10395725;28;20056;-74
2024/01/04 02:40:32;;;;;;;0.50;0.50;;;;;;;;;;10407577;28;20045;-73
2024/01/04 02:45:35;;;;;;;1.27;0.50;;;;;;;;;;10390607;28;20034;-73
2024/01/04 02:50:39;;;;;;;0.77;0.35;;;;;;;;;;10387833;28;20037;-74
2024/01/04 02:55:43;;;;;;;0.35;0.35;;;;;;;;;;10384602;28;20088;-74
2024/01/04 03:00:46;;;;;;;1.02;0.38;;;;;;;;;;10388451;28;20045;-74
2024/01/04 03:05:50;;;;;;;1.27;0.30;;;;;;;;;;10392735;28;20524;-74
2024/01/04 03:10:54;;;;;;;0.40;0.40;;;;;;;;;;10389996;28;20673;-74
2024/01/04 03:15:57;;;;;;;1.45;0.38;;;;;;;;;;10394670;28;20057;-73
2024/01/04 03:21:01;;;;;;;0.90;0.38;;;;;;;;;;10396873;28;20041;-74
2024/01/04 03:26:06;;;;;;;0.63;0.40;;;;;;;;;;10395510;28;20058;-74
2024/01/04 03:31:09;;;;;;;0.60;0.38;;;;;;;;;;10386089;28;20545;-74
2024/01/04 03:36:14;;;;;;;0.30;0.28;;;;;;;;;;10398273;28;20398;-74
2024/01/04 03:41:18;;;;;;;0.57;0.43;;;;;;;;;;10397206;28;20058;-74
2024/01/04 03:46:22;;;;;;;1.65;0.40;;;;;;;;;;10402180;28;20662;-73
2024/01/04 03:51:25;;;;;;;0.90;0.40;;;;;;;;;;10400511;28;20406;-74
2024/01/04 03:56:30;;;;;;;0.45;0.30;;;;;;;;;;10399247;28;20503;-74
2024/01/04 04:01:33;;;;;;;0.32;0.30;;;;;;;;;;10389270;28;20053;-74
2024/01/04 04:06:36;;;;;;;0.75;0.30;;;;;;;;;;10396787;28;20364;-74
2024/01/04 04:11:41;;;;;;;2.40;0.40;;;;;;;;;;10401219;28;20455;-74
2024/01/04 04:16:44;;;;;;;1.83;0.55;;;;;;;;;;10401396;28;20566;-73
2024/01/04 04:21:47;;;;;;;0.77;0.43;;;;;;;;;;10399280;28;20053;-74
2024/01/04 04:26:52;;;;;;;0.35;0.35;;;;;;;;;;10402052;28;20048;-74
2024/01/04 04:31:55;;;;;;;1.25;0.50;;;;;;;;;;10398354;28;20145;-74
2024/01/04 04:36:58;;;;;;;0.95;0.40;;;;;;;;;;10397881;28;20057;-73
2024/01/04 04:42:03;;;;;;;0.40;0.40;;;;;;;;;;10396049;28;20159;-74
2024/01/04 04:47:06;;;;;;;1.17;0.40;;;;;;;;;;10389064;28;20038;-74
2024/01/04 04:52:10;;;;;;;1.33;0.43;;;;;;;;;;10397473;28;20069;-74
2024/01/04 04:57:14;;;;;;;0.47;0.30;;;;;;;;;;10392880;28;20521;-74
2024/01/04 05:02:17;;;;;;;0.43;0.30;;;;;;;;;;10387836;28;20050;-74
2024/01/04 05:07:21;;;;;;;0.30;0.30;;;;;;;;;;10345218;22;1037567;-74
2024/01/04 05:12:25;;;;;;;0.35;0.35;;;;;;;;;;10350998;28;20046;-74
2024/01/04 05:17:28;;;;;;;0.43;0.30;;;;;;;;;;10352461;28;20053;-74
2024/01/04 05:22:32;;;;;;;0.80;0.30;;;;;;;;;;10357395;28;20451;-73
2024/01/04 05:27:37;;;;;;;0.98;0.50;;;;;;;;;;10351829;28;20050;-74
2024/01/04 05:32:40;;;;;;;1.65;0.50;;;;;;;;;;10355468;28;20054;-74
2024/01/04 05:37:43;;;;;;;0.40;0.40;;;;;;;;;;10355766;28;20049;-74
2024/01/04 05:42:48;;;;;;;0.30;0.30;;;;;;;;;;10347197;28;20049;-74
2024/01/04 05:47:51;;;;;;;0.73;0.32;;;;;;;;;;10353422;28;20050;-74
2024/01/04 05:52:58;;;;;;;1.10;0.63;;;;;;;;;;10354574;28;20069;-74
2024/01/04 05:58:02;;;;;;;0.40;0.35;;;;;;;;;;10351534;28;20038;-74
2024/01/04 06:03:06;;;;;;;0.45;0.40;;;;;;;;;;10356912;28;20038;-74
2024/01/04 06:08:09;;;;;;;2.10;0.40;;;;;;;;;;10352131;28;20053;-74
2024/01/04 06:13:14;;;;;;;0.90;0.50;;;;;;;;;;10367879;28;20041;-74
2024/01/04 06:18:17;;;;;;;0.65;0.57;;;;;;;;;;10357577;28;20119;-74
2024/01/04 06:23:20;;;;;;;1.30;0.40;;;;;;;;;;10354681;28;20053;-74
2024/01/04 06:28:25;;;;;;;0.57;0.43;;;;;;;;;;10356158;28;20112;-74
2024/01/04 06:33:28;;;;;;;0.65;0.50;;;;;;;;;;10346782;28;20049;-74
2024/01/04 06:38:32;;;;;;;0.63;0.40;;;;;;;;;;10348251;28;20046;-74
2024/01/04 06:43:37;;;;;;;0.57;0.35;;;;;;;;;;10367152;28;20435;-74
2024/01/04 06:48:40;;;;;;;0.43;0.43;;;;;;;;;;10351442;28;20455;-74
2024/01/04 06:53:43;;;;;;;0.70;0.50;;;;;;;;;;10345866;28;20267;-74
2024/01/04 06:58:48;;;;;;;0.80;0.60;;;;;;;;;;10349082;28;20050;-74
2024/01/04 07:03:51;;;;;;;1.08;0.80;;;;;;;;;;10352476;28;20046;-74
2024/01/04 07:08:54;;;;;;;1.00;0.60;;;;;;;;;;10349747;28;20050;-74
2024/01/04 07:13:59;;;;;;;1.33;0.50;;;;;;;;;;10350475;28;20046;-74
2024/01/04 07:19:02;;;;;;;0.75;0.50;;;;;;;;;;10361298;28;20515;-75
2024/01/04 07:24:06;;;;;;;0.70;0.50;;;;;;;;;;10362401;28;20060;-75
2024/01/04 07:29:11;;;;;;;0.52;0.45;;;;;;;;;;10357195;28;20057;-74
2024/01/04 07:34:14;;;;;;;1.20;0.75;;;;;;;;;;10357163;28;20046;-74
2024/01/04 07:39:17;;;;;;;1.58;0.70;;;;;;;;;;10355022;28;20054;-74
2024/01/04 07:44:22;;;;;;;0.75;0.60;;;;;;;;;;10357870;28;20064;-74
2024/01/04 07:49:25;;;;;;;1.05;0.63;;;;;;;;;;10353383;28;20053;-74
2024/01/04 07:54:28;;;;;;;1.33;0.70;;;;;;;;;;10353001;28;20050;-74
2024/01/04 07:59:36;;;;;;;1.23;0.40;;;;;;;;;;10347660;28;20041;-75
2024/01/04 08:04:40;;;;;;;0.43;0.43;;;;;;;;;;10355719;28;20053;-74
2024/01/04 08:09:43;;;;;;;1.02;0.70;;;;;;;;;;10359504;28;20422;-74
2024/01/04 08:14:48;;;;;;;3.00;0.60;;;;;;;;;;10357331;28;20038;-74
2024/01/04 08:19:51;;;;;;;1.75;0.60;;;;;;;;;;10360311;28;20053;-74
2024/01/04 08:24:54;;;;;;;1.23;0.60;;;;;;;;;;10353026;28;20096;-74
2024/01/04 08:29:59;;;;;;;1.52;0.60;;;;;;;;;;10363186;28;20056;-74
2024/01/04 08:35:02;;;;;;;0.88;0.57;;;;;;;;;;10354637;28;20081;-74
2024/01/04 08:40:07;;;;;;;0.50;0.40;;;;;;;;;;10353432;28;20050;-74
2024/01/04 08:45:12;;;;;;;0.50;0.50;;;;;;;;;;10357783;28;20168;-74
2024/01/04 08:50:15;;;;;;;0.90;0.80;;;;;;;;;;10354315;28;20550;-75
2024/01/04 08:55:20;;;;;;;1.23;0.50;;;;;;;;;;10352052;28;20523;-74
2024/01/04 09:00:24;;;;;;;0.70;0.40;;;;;;;;;;10355146;28;20042;-74
2024/01/04 09:05:28;;;;;;;0.57;0.50;;;;;;;;;;10360666;28;20077;-74
2024/01/04 09:10:31;;;;;;;1.48;0.45;;;;;;;;;;10354018;28;20048;-74
2024/01/04 09:15:36;;;;;;;0.45;0.43;;;;;;;;;;10360535;28;20041;-74
2024/01/04 09:20:39;;;;;;;1.05;0.50;;;;;;;;;;10357702;28;20069;-74
2024/01/04 09:25:42;;;;;;;0.90;0.47;;;;;;;;;;10353807;28;20042;-74
2024/01/04 09:30:47;;;;;;;0.40;0.40;;;;;;;;;;10357274;28;20153;-74
2024/01/04 09:35:50;;;;;;;0.40;0.35;;;;;;;;;;10351037;28;20069;-74
2024/01/04 09:41:01;;;;;;;1.30;0.30;;;;;;;;;;10354647;28;20115;-74
2024/01/04 09:46:07;;;;;;;1.20;0.60;;;;;;;;;;10357897;28;20053;-74
2024/01/04 09:51:10;;;;;;;2.15;0.73;;;;;;;;;;10355830;28;20052;-74
2024/01/04 09:56:15;;;;;;;1.92;0.95;;;;;;;;;;10352848;28;20048;-74
2024/01/04 10:01:25;;;;;;;0.68;0.63;;;;;;;;;;10348890;28;20547;-74
2024/01/04 10:06:32;;;;;;;1.02;0.57;;;;;;;;;;10357269;28;20050;-74
2024/01/04 10:11:43;;;;;;;0.90;0.40;;;;;;;;;;10346553;28;20133;-74
2024/01/04 10:16:49;;;;;;;0.73;0.43;;;;;;;;;;10356454;28;20061;-74
2024/01/04 10:21:52;;;;;;;1.30;0.57;;;;;;;;;;10353430;28;20053;-74
2024/01/04 10:26:57;;;;;;;1.08;0.50;;;;;;;;;;10366927;28;20770;-74
2024/01/04 10:32:03;;;;;;;0.98;0.60;;;;;;;;;;10348081;28;20060;-74
2024/01/04 10:37:11;;;;;;;1.20;0.65;;;;;;;;;;10345949;28;20046;-74
2024/01/04 10:42:16;;;;;;;1.17;0.60;;;;;;;;;;10357463;28;20128;-74
2024/01/04 10:47:21;;;;;;;3.53;1.02;;;;;;;;;;10352807;28;20155;-74
2024/01/04 10:52:29;;;;;;;2.55;0.82;;;;;;;;;;10360121;28;20733;-74
2024/01/04 10:57:36;;;;;;;1.77;0.80;;;;;;;;;;10346568;28;20042;-74
2024/01/04 11:02:41;;;;;;;2.73;0.90;;;;;;;;;;10355269;28;20038;-74
2024/01/04 11:07:45;;;;;;;2.53;0.95;;;;;;;;;;10347754;28;20048;-74
2024/01/04 11:12:49;;;;;;;3.15;0.95;;;;;;;;;;10353961;28;20526;-74
2024/01/04 11:18:14;;;;;;;5.95;1.42;;;;;;;;;;10352783;28;20054;-74
2024/01/04 11:23:34;;;;;;;7.03;1.60;;;;;;;;;;10354933;28;20053;-74
2024/01/04 11:28:38;;;;;;;6.07;1.50;;;;;;;;;;10349575;28;20058;-74
2024/01/04 11:33:44;;;;;;;7.38;1.80;;;;;;;;;;10354868;28;20415;-73
2024/01/04 11:38:48;;;;;;;6.35;1.85;;;;;;;;;;10354505;28;20060;-74
2024/01/04 11:43:52;;;;;;;5.88;2.03;;;;;;;;;;10349708;28;20680;-74
2024/01/04 11:49:00;;;;;;;7.72;1.80;;;;;;;;;;10365523;28;20052;-74
2024/01/04 11:54:06;;;;;;;8.38;1.88;;;;;;;;;;10353925;28;20053;-74
2024/01/04 11:59:11;;;;;;;11.30;2.38;;;;;;;;;;10352986;28;20507;-74
2024/01/04 12:04:17;;;;;;;6.57;1.88;;;;;;;;;;10352896;28;20137;-74
2024/01/04 12:09:20;;;;;;;6.87;2.50;;;;;;;;;;10362627;28;20042;-74
2024/01/04 12:14:23;;;;;;;7.05;2.05;;;;;;;;;;10355355;28;20670;-74
2024/01/04 12:19:28;;;;;;;6.95;1.83;;;;;;;;;;10361949;28;20045;-74
2024/01/04 12:24:31;;;;;;;10.40;2.17;;;;;;;;;;10352691;28;20395;-74
2024/01/04 12:29:35;;;;;;;10.43;2.30;;;;;;;;;;10356439;28;20530;-74
2024/01/04 12:34:45;;;;;;;7.28;2.03;;;;;;;;;;10358126;28;20053;-74
2024/01/04 12:39:49;;;;;;;6.28;1.73;;;;;;;;;;10356303;28;20136;-74
2024/01/04 12:44:52;;;;;;;12.18;2.15;;;;;;;;;;10356502;28;20046;-74
2024/01/04 12:49:57;;;;;;;6.90;2.10;;;;;;;;;;10357996;28;20057;-74
2024/01/04 12:55:00;;;;;;;7.00;1.80;;;;;;;;;;10352402;28;20511;-74
2024/01/04 13:00:04;;;;;;;6.13;2.40;;;;;;;;;;10356544;28;20056;-74
2024/01/04 13:05:09;;;;;;;7.03;2.55;;;;;;;;;;10357119;28;20053;-74
2024/01/04 13:10:13;;;;;;;6.85;1.65;;;;;;;;;;10348985;28;20045;-74
2024/01/04 13:15:16;;;;;;;7.13;1.77;;;;;;;;;;10379554;28;20042;-74
2024/01/04 13:20:21;;;;;;;7.10;1.70;;;;;;;;;;10359788;28;20038;-74
2024/01/04 13:25:24;;;;;;;6.80;1.50;;;;;;;;;;10353510;28;20085;-74
2024/01/04 13:30:29;;;;;;;6.30;1.70;;;;;;;;;;10353174;28;20049;-74
2024/01/04 13:35:34;;;;;;;6.22;1.73;;;;;;;;;;10359363;28;20045;-74
2024/01/04 13:40:37;;;;;;;4.97;1.63;;;;;;;;;;10356549;28;20054;-74
2024/01/04 13:45:40;;;;;;;8.30;2.05;;;;;;;;;;10354265;28;20035;-74
2024/01/04 13:50:45;;;;;;;6.90;1.80;;;;;;;;;;10353838;28;20046;-74
2024/01/04 13:55:48;;;;;;;5.18;1.45;;;;;;;;;;10351972;28;20573;-74
2024/01/04 14:00:52;;;;;;;4.65;1.27;;;;;;;;;;10373744;28;20057;-74
2024/01/04 14:05:56;;;;;;;8.43;2.08;;;;;;;;;;10359455;28;20048;-74
2024/01/04 14:11:00;;;;;;;3.13;1.60;;;;;;;;;;10356930;28;20572;-74
2024/01/04 14:16:03;;;;;;;5.65;1.52;;;;;;;;;;10354699;28;20534;-74
2024/01/04 14:21:08;;;;;;;5.47;1.52;;;;;;;;;;10357593;28;20153;-74
2024/01/04 14:26:11;;;;;;;7.13;1.80;;;;;;;;;;10349860;28;20047;-74
2024/01/04 14:31:15;;;;;;;3.85;1.42;;;;;;;;;;10355481;28;20073;-74
2024/01/04 14:36:20;;;;;;;9.77;2.30;;;;;;;;;;10352562;28;20447;-74
2024/01/04 14:41:23;;;;;;;6.18;2.00;;;;;;;;;;10353528;28;20038;-74
2024/01/04 14:46:27;;;;;;;6.45;2.50;;;;;;;;;;10356172;28;20049;-74
2024/01/04 14:51:33;;;;;;;4.82;1.63;;;;;;;;;;10351573;28;20060;-74
2024/01/04 14:56:37;;;;;;;6.80;1.85;;;;;;;;;;10350907;28;20049;-74
2024/01/04 15:01:41;;;;;;;6.70;1.83;;;;;;;;;;10351697;28;20605;-74
2024/01/04 15:06:45;;;;;;;8.27;3.03;;;;;;;;;;10356133;28;20069;-74
2024/01/04 15:11:49;;;;;;;4.57;1.80;;;;;;;;;;10353130;28;20054;-74
2024/01/04 15:16:52;;;;;;;5.35;2.08;;;;;;;;;;10348172;28;20046;-74
2024/01/04 15:21:56;;;;;;;6.55;1.70;;;;;;;;;;10345839;28;20668;-74
2024/01/04 15:27:00;;;;;;;6.43;1.55;;;;;;;;;;10349379;28;20514;-74
2024/01/04 15:32:06;;;;;;;5.32;1.80;;;;;;;;;;10350794;28;20042;-74
2024/01/04 15:37:11;;;;;;;6.30;2.00;;;;;;;;;;10356397;28;20553;-74
2024/01/04 15:42:14;;;;;;;9.13;2.00;;;;;;;;;;10356086;28;20507;-74
2024/01/04 15:47:18;;;;;;;8.05;1.77;;;;;;;;;;10357739;28;20481;-74
2024/01/04 15:52:22;;;;;;;3.78;1.90;;;;;;;;;;10359702;28;20830;-74
2024/01/04 15:57:25;;;;;;;5.28;1.73;;;;;;;;;;10361310;28;20046;-74
2024/01/04 16:02:29;;;;;;;9.43;2.88;;;;;;;;;;10355885;28;20080;-74
2024/01/04 16:07:34;;;;;;;8.15;2.17;;;;;;;;;;10350228;28;20096;-73
2024/01/04 16:12:38;;;;;;;4.68;1.70;;;;;;;;;;10363544;28;20053;-74
2024/01/04 16:17:41;;;;;;;6.28;2.10;;;;;;;;;;10362723;28;20152;-74
2024/01/04 16:22:46;;;;;;;5.00;2.00;;;;;;;;;;10360636;28;20037;-74
2024/01/04 16:27:50;;;;;;;5.43;1.58;;;;;;;;;;10356138;28;20050;-74
2024/01/04 16:32:53;;;;;;;4.93;1.35;;;;;;;;;;10358697;28;20080;-74
2024/01/04 16:37:58;;;;;;;5.63;1.00;;;;;;;;;;10359678;28;20606;-74
2024/01/04 16:43:02;;;;;;;3.53;1.50;;;;;;;;;;10357468;28;20046;-74
2024/01/04 16:48:06;;;;;;;5.00;1.38;;;;;;;;;;10350708;28;20540;-74
2024/01/04 16:53:11;;;;;;;2.55;1.05;;;;;;;;;;10357938;28;20049;-74
2024/01/04 16:58:16;;;;;;;3.13;1.10;;;;;;;;;;10345586;28;20046;-74
2024/01/04 17:03:19;;;;;;;4.18;1.50;;;;;;;;;;10358841;28;20038;-74
2024/01/04 17:08:24;;;;;;;2.78;1.10;;;;;;;;;;10357079;28;20077;-74
2024/01/04 17:13:27;;;;;;;4.20;1.02;;;;;;;;;;10359204;28;20053;-74
2024/01/04 17:18:30;;;;;;;4.85;1.15;;;;;;;;;;10359165;28;20054;-74
2024/01/04 17:23:36;;;;;;;3.90;1.10;;;;;;;;;;10359324;28;20041;-74
2024/01/04 17:28:41;;;;;;;;;;;;;;;;;;10354181;28;20038;-74
2024/01/04 17:33:46;;;;;;;3.22;1.30;;;;;;;;;;10370060;28;19921;-74
2024/01/04 17:38:50;;;;;;;2.25;1.02;;;;;;;;;;10358080;28;20116;-74
2024/01/04 17:43:53;;;;;;;7.97;3.80;;;;;;;;;;10353626;28;20049;-74
2024/01/04 17:48:58;;;;;;;6.57;3.08;;;;;;;;;;10356960;28;20034;-74
2024/01/04 17:54:03;;;;;;;4.78;2.20;;;;;;;;;;10351906;28;20081;-74
2024/01/04 17:59:07;;;;;;;4.85;1.70;;;;;;;;;;10352575;28;20168;-74
2024/01/04 18:04:10;;;;;;;3.20;1.40;;;;;;;;;;10355067;28;20041;-74
2024/01/04 18:09:14;;;;;;;5.35;1.80;;;;;;;;;;10348906;28;20041;-74
2024/01/04 18:14:18;;;;;;;4.82;2.00;;;;;;;;;;10352800;28;20137;-74
2024/01/04 18:19:21;;;;;;;3.78;1.90;;;;;;;;;;10348896;28;20573;-74
2024/01/04 18:24:26;;;;;;;5.72;2.25;;;;;;;;;;10349850;28;20122;-74
2024/01/04 18:29:29;;;;;;;4.55;1.90;;;;;;;;;;10354905;28;20046;-74
2024/01/04 18:34:32;;;;;;;7.47;2.80;;;;;;;;;;10352251;28;20041;-74
2024/01/04 18:39:37;;;;;;;8.38;3.65;;;;;;;;;;10355917;28;20568;-74
2024/01/04 18:44:40;;;;;;;6.53;3.08;;;;;;;;;;10354974;28;20042;-74
2024/01/04 18:49:44;;;;;;;6.60;3.13;;;;;;;;;;10353808;28;20559;-74
2024/01/04 18:54:50;;;;;;;7.90;2.78;;;;;;;;;;10371634;28;20049;-74
2024/01/04 19:00:35;;;;;;;6.15;3.10;;;;;;;;;;10358670;28;20056;-74
2024/01/04 19:05:46;;;;;;;7.35;2.97;;;;;;;;;;10353126;28;20092;-74
2024/01/04 19:10:50;;;;;;;10.68;4.22;;;;;;;;;;10344114;28;20117;-74
2024/01/04 19:22:37;;;;;;;6.63;3.50;;;;;;;;;;10351593;28;20050;-74
2024/01/04 19:28:22;;;;;;;7.90;3.92;;;;;;;;;;10350154;28;20049;-74
2024/01/04 19:34:02;;;;;;;4.97;2.40;;;;;;;;;;10341454;28;20034;-74
2024/01/04 19:39:15;;;;;;;4.03;2.10;;;;;;;;;;10353350;28;20128;-74
2024/01/04 19:44:20;;;;;;;5.07;1.90;;;;;;;;;;10349223;28;20042;-74
2024/01/04 19:49:24;;;;;;;4.13;1.77;;;;;;;;;;10348881;28;20034;-74
2024/01/04 19:54:28;;;;;;;6.13;2.00;;;;;;;;;;10360415;28;20058;-74
2024/01/04 19:59:33;;;;;;;4.95;1.90;;;;;;;;;;10350604;28;20060;-74
2024/01/04 20:04:37;;;;;;;6.07;2.30;;;;;;;;;;10350184;28;20384;-74
2024/01/04 20:09:40;;;;;;;6.00;1.92;;;;;;;;;;10345974;28;20058;-74
2024/01/04 20:14:44;;;;;;;4.60;1.83;;;;;;;;;;10343989;28;20045;-74
2024/01/04 20:19:48;;;;;;;7.13;2.05;;;;;;;;;;10350818;28;20922;-74
2024/01/04 20:24:52;;;;;;;5.82;1.67;;;;;;;;;;10355844;28;20076;-74
2024/01/04 20:29:57;;;;;;;7.32;2.13;;;;;;;;;;10352714;28;20050;-74
2024/01/04 20:35:00;;;;;;;7.80;2.38;;;;;;;;;;10355923;28;20054;-73
2024/01/04 20:40:04;;;;;;;6.53;1.95;;;;;;;;;;10358923;28;20096;-74
2024/01/04 20:45:11;;;;;;;4.18;2.05;;;;;;;;;;10353007;28;20044;-73
2024/01/04 20:50:14;;;;;;;6.03;2.25;;;;;;;;;;10357493;28;20120;-74
2024/01/04 20:55:17;;;;;;;3.78;1.33;;;;;;;;;;10344860;28;20041;-74
2024/01/04 21:00:26;;;;;;;4.38;1.85;;;;;;;;;;10358352;28;20056;-74
2024/01/04 21:05:30;;;;;;;4.93;1.67;;;;;;;;;;10351961;28;20069;-74
2024/01/04 21:10:56;;;;;;;6.75;1.65;;;;;;;;;;10358945;28;20046;-74
2024/01/04 21:16:28;;;;;;;4.35;2.00;;;;;;;;;;10345976;28;20153;-73
2024/01/04 21:21:39;;;;;;;7.55;2.08;;;;;;;;;;10346225;28;20050;-74
2024/01/04 21:26:45;;;;;;;4.40;1.77;;;;;;;;;;10355696;28;20112;-74
2024/01/04 21:32:08;;;;;;;;;;;;;;;;;;10359120;28;20465;-74
2024/01/04 21:37:36;;;;;;;9.80;3.17;;;;;;;;;;10350994;28;19921;-74
2024/01/04 21:42:39;;;;;;;15.05;3.17;;;;;;;;;;10359690;28;20144;-74
2024/01/04 21:47:45;;;;;;;6.75;2.17;;;;;;;;;;10350929;28;20042;-74
2024/01/04 21:52:49;;;;;;;10.88;2.55;;;;;;;;;;10352204;28;20058;-74
2024/01/04 21:57:52;;;;;;;5.85;2.28;;;;;;;;;;10351518;28;20116;-74
2024/01/04 22:02:57;;;;;;;6.90;2.10;;;;;;;;;;10362244;28;20081;-74
2024/01/04 22:08:12;;;;;;;10.00;2.90;;;;;;;;;;10345467;28;20046;-74
2024/01/04 22:13:17;;;;;;;13.45;3.22;;;;;;;;;;10346280;28;20664;-74
2024/01/04 22:18:22;;;;;;;8.82;3.20;;;;;;;;;;10352584;28;20061;-74
2024/01/04 22:23:25;;;;;;;10.80;2.92;;;;;;;;;;10351682;28;20622;-74
2024/01/04 22:28:29;;;;;;;8.13;2.55;;;;;;;;;;10349578;28;20042;-74
2024/01/04 22:33:34;;;;;;;6.38;2.17;;;;;;;;;;10346823;28;20564;-74
2024/01/04 22:38:37;;;;;;;7.57;2.47;;;;;;;;;;10355441;28;20038;-74
2024/01/04 22:43:40;;;;;;;7.35;2.05;;;;;;;;;;10355647;28;20069;-74
2024/01/04 22:48:45;;;;;;;8.07;2.55;;;;;;;;;;10347527;28;20049;-74
2024/01/04 22:53:48;;;;;;;5.25;1.58;;;;;;;;;;10357146;28;20034;-74
2024/01/04 22:58:52;;;;;;;7.57;1.92;;;;;;;;;;10358133;28;20046;-74
2024/01/04 23:03:57;;;;;;;8.68;2.85;;;;;;;;;;10388506;23;20046;-74
2024/01/04 23:09:00;;;;;;;8.80;2.83;;;;;;;;;;10391750;28;20137;-75
2024/01/04 23:14:03;;;;;;;11.50;3.15;;;;;;;;;;10400334;28;20124;-75
2024/01/04 23:19:10;;;;;;;8.82;2.63;;;;;;;;;;10396320;28;20493;-75
2024/01/04 23:24:13;;;;;;;6.78;2.10;;;;;;;;;;10399157;28;20045;-73
2024/01/04 23:29:16;;;;;;;6.20;2.10;;;;;;;;;;10397890;28;20609;-74
2024/01/04 23:34:21;;;;;;;8.30;2.63;;;;;;;;;;10400212;28;20047;-74
2024/01/04 23:39:24;;;;;;;7.35;2.42;;;;;;;;;;10397837;28;20053;-74
2024/01/04 23:44:27;;;;;;;11.75;3.25;;;;;;;;;;10402522;28;20067;-74
2024/01/04 23:49:32;;;;;;;9.43;2.83;;;;;;;;;;10397776;28;20041;-75
2024/01/04 23:54:35;;;;;;;14.07;3.13;;;;;;;;;;10397172;28;20037;-74
2024/01/04 23:59:39;;;;;;;7.68;2.80;;;;;;;;;;10398798;28;20041;-74
